createdAt,value
2018-08-20T00:02:25.686Z,20.57
2018-08-20T00:04:54.536Z,22.50
2018-08-20T00:07:23.003Z,21.53
2018-08-20T00:09:51.495Z,22.00
2018-08-20T00:12:20.081Z,20.93
2018-08-20T00:14:48.679Z,22.73
2018-08-20T00:17:17.965Z,21.57
2018-08-20T00:19:46.435Z,19.73
2018-08-20T00:27:15.786Z,22.80
2018-08-20T00:29:44.291Z,22.20
2018-08-20T00:32:13.365Z,20.40
2018-08-20T00:34:42.533Z,21.40
2018-08-20T00:37:11.066Z,20.33
2018-08-20T00:39:39.520Z,21.80
2018-08-20T00:42:08.045Z,20.47
2018-08-20T00:44:36.534Z,22.40
2018-08-20T00:47:05.025Z,20.67
2018-08-20T00:49:33.593Z,21.52
2018-08-20T00:52:02.303Z,20.67
2018-08-20T00:54:32.322Z,22.10
2018-08-20T00:57:01.066Z,22.43
2018-08-20T00:59:29.550Z,21.73
2018-08-20T01:01:58.040Z,29.23
2018-08-20T01:04:26.541Z,22.22
2018-08-20T01:06:55.002Z,25.67
2018-08-20T01:09:23.470Z,23.10
2018-08-20T01:11:53.017Z,28.93
2018-08-20T01:14:21.488Z,22.90
2018-08-20T01:16:49.979Z,20.47
2018-08-20T01:19:18.890Z,21.80
2018-08-20T01:21:47.381Z,21.12
2018-08-20T01:24:17.362Z,20.57
2018-08-20T01:26:45.886Z,21.07
2018-08-20T01:34:11.471Z,21.00
2018-08-20T01:36:39.982Z,23.50
2018-08-20T01:39:08.694Z,22.22
2018-08-20T01:41:37.506Z,21.03
2018-08-20T01:44:06.010Z,21.17
2018-08-20T01:46:37.520Z,19.95
2018-08-20T01:49:07.118Z,19.20
2018-08-20T01:51:35.757Z,20.83
2018-08-20T01:54:04.305Z,20.27
2018-08-20T01:56:33.369Z,20.37
2018-08-20T01:59:01.830Z,21.20
2018-08-20T02:01:30.308Z,21.20
2018-08-20T02:03:59.014Z,20.47
2018-08-20T02:06:27.539Z,21.27
2018-08-20T02:08:56.046Z,22.87
2018-08-20T02:11:24.662Z,20.60
2018-08-20T02:13:53.143Z,22.80
2018-08-20T02:16:21.629Z,20.08
2018-08-20T02:18:50.172Z,21.33
2018-08-20T02:21:18.669Z,23.37
2018-08-20T02:23:47.202Z,21.07
2018-08-20T02:26:19.035Z,24.60
2018-08-20T02:28:47.593Z,23.63
2018-08-20T02:31:17.405Z,24.20
2018-08-20T02:33:45.937Z,22.60
2018-08-20T02:41:15.233Z,26.67
2018-08-20T02:43:43.705Z,23.13
2018-08-20T02:46:12.199Z,21.40
2018-08-20T02:48:41.050Z,22.07
2018-08-20T02:51:09.539Z,20.57
2018-08-20T02:53:38.090Z,24.17
2018-08-20T02:56:06.596Z,20.87
2018-08-20T02:58:36.453Z,23.20
2018-08-20T03:01:05.418Z,21.80
2018-08-20T03:03:34.000Z,21.05
2018-08-20T03:06:03.035Z,22.70
2018-08-20T03:08:31.514Z,24.97
2018-08-20T03:11:00.489Z,23.50
2018-08-20T03:13:28.977Z,22.80
2018-08-20T03:15:57.460Z,20.45
2018-08-20T03:18:25.960Z,21.37
2018-08-20T03:20:54.458Z,23.70
2018-08-20T03:23:22.930Z,23.35
2018-08-20T03:25:51.438Z,26.65
2018-08-20T03:28:19.921Z,28.20
2018-08-20T03:30:49.007Z,22.00
2018-08-20T03:33:18.052Z,22.13
2018-08-20T03:35:47.620Z,21.97
2018-08-20T03:38:17.383Z,23.42
2018-08-20T03:40:45.874Z,28.57
2018-08-20T03:48:14.848Z,23.43
2018-08-20T03:50:43.316Z,24.13
2018-08-20T03:53:11.805Z,25.13
2018-08-20T03:55:40.726Z,23.33
2018-08-20T03:58:09.198Z,24.70
2018-08-20T04:00:39.019Z,25.73
2018-08-20T04:03:07.525Z,26.17
2018-08-20T04:05:36.019Z,26.07
2018-08-20T04:08:04.508Z,25.07
2018-08-20T04:10:33.017Z,24.10
2018-08-20T04:13:01.489Z,25.53
2018-08-20T04:15:29.954Z,24.37
2018-08-20T04:17:58.902Z,26.30
2018-08-20T04:20:27.370Z,24.20
2018-08-20T04:22:55.830Z,24.03
2018-08-20T04:25:24.329Z,30.60
2018-08-20T04:27:52.797Z,23.80
2018-08-20T04:30:21.280Z,24.23
2018-08-20T04:32:49.813Z,25.67
2018-08-20T04:35:18.298Z,24.90
2018-08-20T04:37:46.787Z,30.20
2018-08-20T04:45:11.358Z,24.73
2018-08-20T04:47:39.818Z,25.53
2018-08-20T04:50:09.828Z,25.07
2018-08-20T04:52:38.861Z,24.83
2018-08-20T04:55:07.378Z,26.37
2018-08-20T04:57:39.707Z,25.87
2018-08-20T05:00:10.005Z,24.87
2018-08-20T05:02:41.485Z,25.08
2018-08-20T05:05:10.068Z,24.70
2018-08-20T05:07:38.566Z,24.67
2018-08-20T05:10:07.592Z,23.70
2018-08-20T05:12:36.170Z,23.47
2018-08-20T05:15:05.069Z,23.87
2018-08-20T05:17:33.641Z,25.82
2018-08-20T05:20:02.149Z,25.33
2018-08-20T05:22:30.617Z,25.10
2018-08-20T05:24:59.354Z,26.53
2018-08-20T05:27:28.557Z,28.52
2018-08-20T05:29:57.055Z,24.23
2018-08-20T05:32:25.546Z,26.77
2018-08-20T05:34:54.105Z,26.63
2018-08-20T05:37:22.618Z,24.45
2018-08-20T05:39:51.174Z,27.10
2018-08-20T05:42:19.735Z,25.00
2018-08-20T05:44:48.334Z,26.63
2018-08-20T05:47:17.822Z,22.83
2018-08-20T05:49:46.387Z,21.60
2018-08-20T05:57:11.303Z,22.60
2018-08-20T05:59:40.324Z,22.13
2018-08-20T06:02:09.390Z,21.73
2018-08-20T06:04:39.030Z,21.10
2018-08-20T06:07:10.324Z,22.37
2018-08-20T06:09:38.802Z,20.50
2018-08-20T06:12:07.399Z,32.63
2018-08-20T06:14:35.906Z,19.27
2018-08-20T06:17:04.420Z,18.43
2018-08-20T06:19:32.985Z,24.23
2018-08-20T06:22:01.479Z,19.65
2018-08-20T06:24:29.934Z,33.20
2018-08-20T06:26:59.038Z,21.60
2018-08-20T06:29:27.531Z,18.13
2018-08-20T06:31:56.190Z,16.10
2018-08-20T06:34:24.722Z,17.10
2018-08-20T06:36:53.247Z,15.50
2018-08-20T06:39:21.728Z,16.63
2018-08-20T06:41:50.278Z,23.13
2018-08-20T06:44:18.827Z,21.07
2018-08-20T06:46:47.333Z,15.33
2018-08-20T06:54:17.150Z,10.50
2018-08-20T06:56:45.684Z,11.63
2018-08-20T07:04:11.571Z,10.40
2018-08-20T07:06:40.939Z,10.43
2018-08-20T07:09:10.429Z,16.32
2018-08-20T07:11:39.584Z,11.03
2018-08-20T07:14:08.110Z,10.90
2018-08-20T07:16:37.538Z,29.03
2018-08-20T07:19:06.863Z,14.33
2018-08-20T07:21:35.361Z,8.13
2018-08-20T07:24:04.024Z,9.60
2018-08-20T07:26:32.527Z,8.13
2018-08-20T07:29:01.073Z,7.60
2018-08-20T07:31:29.600Z,6.72
2018-08-20T07:33:58.221Z,8.40
2018-08-20T07:36:26.753Z,8.60
2018-08-20T07:38:55.337Z,7.90
2018-08-20T07:41:23.898Z,7.00
2018-08-20T07:43:52.443Z,6.85
2018-08-20T07:46:20.985Z,7.83
2018-08-20T07:48:49.535Z,5.60
2018-08-20T07:51:18.169Z,5.00
2018-08-20T07:53:46.678Z,8.20
2018-08-20T08:01:11.754Z,5.17
2018-08-20T08:03:40.619Z,5.33
2018-08-20T08:06:09.163Z,5.03
2018-08-20T08:08:39.083Z,5.00
2018-08-20T08:11:10.514Z,4.77
2018-08-20T08:13:39.014Z,6.40
2018-08-20T08:16:07.637Z,9.28
2018-08-20T08:18:36.159Z,4.50
2018-08-20T08:21:04.727Z,3.60
2018-08-20T08:23:33.823Z,3.77
2018-08-20T08:26:02.334Z,4.63
2018-08-20T08:28:30.884Z,5.17
2018-08-20T08:30:59.403Z,4.00
2018-08-20T08:33:27.898Z,3.33
2018-08-20T08:35:56.436Z,5.03
2018-08-20T08:38:24.981Z,3.40
2018-08-20T08:40:53.614Z,4.13
2018-08-20T08:43:22.120Z,3.50
2018-08-20T08:45:50.856Z,3.47
2018-08-20T08:48:19.351Z,3.07
2018-08-20T08:50:47.904Z,2.90
2018-08-20T08:53:17.622Z,3.50
2018-08-20T08:55:46.108Z,3.70
2018-08-20T09:03:18.723Z,17.60
2018-08-20T09:05:47.296Z,2.83
2018-08-20T09:08:17.425Z,3.52
2018-08-20T09:10:47.218Z,2.73
2018-08-20T09:13:16.533Z,3.23
2018-08-20T09:15:45.025Z,5.90
2018-08-20T09:18:14.486Z,2.80
2018-08-20T09:20:43.049Z,3.13
2018-08-20T09:23:11.530Z,7.43
2018-08-20T09:25:40.362Z,9.27
2018-08-20T09:28:08.914Z,13.63
2018-08-20T09:30:37.451Z,3.00
2018-08-20T09:33:05.998Z,3.30
2018-08-20T09:35:34.478Z,8.13
2018-08-20T09:38:03.956Z,3.30
2018-08-20T09:40:33.032Z,3.50
2018-08-20T09:43:04.192Z,2.67
2018-08-20T09:45:32.790Z,2.95
2018-08-20T09:48:01.366Z,4.60
2018-08-20T09:50:29.871Z,3.20
2018-08-20T09:52:58.485Z,6.03
2018-08-20T09:55:27.048Z,7.17
2018-08-20T09:57:56.277Z,3.23
2018-08-20T10:00:30.239Z,4.78
2018-08-20T10:02:59.698Z,3.67
2018-08-20T10:05:28.229Z,3.70
2018-08-20T10:07:57.429Z,4.40
2018-08-20T10:10:26.946Z,3.90
2018-08-20T10:12:57.737Z,3.03
2018-08-20T10:15:26.299Z,6.95
2018-08-20T10:17:54.800Z,3.50
2018-08-20T10:20:23.604Z,7.50
2018-08-20T10:22:52.821Z,7.67
2018-08-20T10:25:21.378Z,6.87
2018-08-20T10:27:50.240Z,4.63
2018-08-20T10:30:19.109Z,8.97
2018-08-20T10:32:47.670Z,5.50
2018-08-20T10:35:17.414Z,4.87
2018-08-20T10:37:45.987Z,4.53
2018-08-20T10:45:15.627Z,5.33
2018-08-20T10:47:45.663Z,5.47
2018-08-20T10:55:08.156Z,5.63
2018-08-20T10:57:36.653Z,10.87
2018-08-20T11:00:06.093Z,6.43
2018-08-20T11:02:34.637Z,4.85
2018-08-20T11:05:03.132Z,4.87
2018-08-20T11:07:35.394Z,12.00
2018-08-20T11:10:05.739Z,6.90
2018-08-20T11:12:34.243Z,10.80
2018-08-20T11:15:07.158Z,10.83
2018-08-20T11:17:36.186Z,4.50
2018-08-20T11:20:05.868Z,4.70
2018-08-20T11:22:34.434Z,5.00
2018-08-20T11:25:02.934Z,5.13
2018-08-20T11:27:31.428Z,6.13
2018-08-20T11:29:59.986Z,7.70
2018-08-20T11:32:28.493Z,7.63
2018-08-20T11:34:57.008Z,5.97
2018-08-20T11:37:25.550Z,6.70
2018-08-20T11:39:54.032Z,8.77
2018-08-20T11:42:22.717Z,5.60
2018-08-20T11:44:51.446Z,5.73
2018-08-20T11:47:19.918Z,7.67
2018-08-20T11:49:48.386Z,6.53
2018-08-20T11:52:17.494Z,9.33
2018-08-20T11:54:45.982Z,7.03
2018-08-20T12:02:11.756Z,5.37
2018-08-20T12:04:40.247Z,14.67
2018-08-20T12:07:09.013Z,14.57
2018-08-20T12:09:37.794Z,6.93
2018-08-20T12:12:06.495Z,4.83
2018-08-20T12:14:35.050Z,6.63
2018-08-20T12:17:04.276Z,6.93
2018-08-20T12:19:32.786Z,6.93
2018-08-20T12:22:01.514Z,11.23
2018-08-20T12:24:30.518Z,5.40
2018-08-20T12:26:59.137Z,7.43
2018-08-20T12:29:28.631Z,6.10
2018-08-20T12:31:57.205Z,10.33
2018-08-20T12:34:25.948Z,5.20
2018-08-20T12:36:54.454Z,6.23
2018-08-20T12:39:22.960Z,5.78
2018-08-20T12:41:51.674Z,5.93
2018-08-20T12:44:20.280Z,5.85
2018-08-20T12:46:48.874Z,5.80
2018-08-20T12:49:18.576Z,8.40
2018-08-20T12:51:48.062Z,8.90
2018-08-20T12:54:18.633Z,5.54
2018-08-20T12:56:47.102Z,6.50
2018-08-20T12:59:17.364Z,10.70
2018-08-20T13:01:49.055Z,5.50
2018-08-20T13:04:17.548Z,6.43
2018-08-20T13:06:46.027Z,5.93
2018-08-20T13:14:08.395Z,13.43
2018-08-20T13:16:38.575Z,6.23
2018-08-20T13:19:08.430Z,5.73
2018-08-20T13:21:36.912Z,6.40
2018-08-20T13:24:05.745Z,9.97
2018-08-20T13:26:34.395Z,6.17
2018-08-20T13:29:03.874Z,8.47
2018-08-20T13:31:32.361Z,9.07
2018-08-20T13:34:00.910Z,6.60
2018-08-20T13:36:29.770Z,10.80
2018-08-20T13:38:58.333Z,7.63
2018-08-20T13:41:26.840Z,7.08
2018-08-20T13:43:55.804Z,7.10
2018-08-20T13:46:25.245Z,8.00
2018-08-20T13:48:54.586Z,7.10
2018-08-20T13:51:23.117Z,6.65
2018-08-20T13:53:51.631Z,6.57
2018-08-20T13:56:20.133Z,6.27
2018-08-20T13:58:49.292Z,7.00
2018-08-20T14:01:17.810Z,8.80
2018-08-20T14:03:46.309Z,5.87
2018-08-20T14:11:15.157Z,7.13
2018-08-20T14:13:43.650Z,5.23
2018-08-20T14:16:12.200Z,7.13
2018-08-20T14:18:41.112Z,6.70
2018-08-20T14:21:13.793Z,6.03
2018-08-20T14:23:43.391Z,5.73
2018-08-20T14:26:13.992Z,6.87
2018-08-20T14:28:42.514Z,6.05
2018-08-20T14:31:11.066Z,7.33
2018-08-20T14:33:39.618Z,9.60
2018-08-20T14:36:08.649Z,6.17
2018-08-20T14:38:37.546Z,6.50
2018-08-20T14:41:06.424Z,6.27
2018-08-20T14:43:35.107Z,6.33
2018-08-20T14:46:09.080Z,6.83
2018-08-20T14:48:37.636Z,9.27
2018-08-20T14:51:06.230Z,6.07
2018-08-20T14:53:34.862Z,8.20
2018-08-20T14:56:03.344Z,7.57
2018-08-20T14:58:31.862Z,8.80
2018-08-20T15:01:00.847Z,6.83
2018-08-20T15:03:29.328Z,5.65
2018-08-20T15:05:57.852Z,6.13
2018-08-20T15:08:26.413Z,5.80
2018-08-20T15:10:55.128Z,6.07
2018-08-20T15:13:23.666Z,7.92
2018-08-20T15:15:52.361Z,6.17
2018-08-20T15:18:23.749Z,5.80
2018-08-20T15:20:52.356Z,6.60
2018-08-20T15:23:23.475Z,7.42
2018-08-20T15:25:52.189Z,6.63
2018-08-20T15:28:20.856Z,8.38
2018-08-20T15:30:49.540Z,6.10
2018-08-20T15:33:20.617Z,6.62
2018-08-20T15:35:49.299Z,7.07
2018-08-20T15:38:18.069Z,6.53
2018-08-20T15:40:46.630Z,6.50
2018-08-20T15:48:16.010Z,8.37
2018-08-20T15:50:44.534Z,6.00
2018-08-20T15:53:13.078Z,6.70
2018-08-20T15:55:41.726Z,6.03
2018-08-20T15:58:10.256Z,7.23
2018-08-20T16:00:38.781Z,7.37
2018-08-20T16:03:07.535Z,7.20
2018-08-20T16:05:36.086Z,10.07
2018-08-20T16:08:04.705Z,8.83
2018-08-20T16:10:33.682Z,11.27
2018-08-20T16:13:02.218Z,7.33
2018-08-20T16:15:30.774Z,5.67
2018-08-20T16:17:59.356Z,5.90
2018-08-20T16:20:27.852Z,5.83
2018-08-20T16:22:56.462Z,6.30
2018-08-20T16:25:28.417Z,6.10
2018-08-20T16:27:57.346Z,7.93
2018-08-20T16:30:26.524Z,6.57
2018-08-20T16:32:55.166Z,6.10
2018-08-20T16:35:24.091Z,9.20
2018-08-20T16:37:52.762Z,7.77
2018-08-20T16:40:21.453Z,11.15
2018-08-20T16:42:50.177Z,5.90
2018-08-20T16:45:19.686Z,6.13
2018-08-20T16:47:48.329Z,8.43
2018-08-20T16:50:17.767Z,9.00
2018-08-20T16:52:46.787Z,6.10
2018-08-20T17:00:13.748Z,6.30
2018-08-20T17:02:43.122Z,5.90
2018-08-20T17:05:13.030Z,6.60
2018-08-20T17:07:41.946Z,18.83
2018-08-20T17:10:11.974Z,12.60
2018-08-20T17:12:44.847Z,7.83
2018-08-20T17:15:17.141Z,6.57
2018-08-20T17:17:45.768Z,8.80
2018-08-20T17:25:08.002Z,13.00
2018-08-20T17:27:37.175Z,7.13
2018-08-20T17:30:07.799Z,7.27
2018-08-20T17:32:36.851Z,6.45
2018-08-20T17:35:07.816Z,6.93
2018-08-20T17:37:36.373Z,6.63
2018-08-20T17:40:08.276Z,9.20
2018-08-20T17:42:36.918Z,10.73
2018-08-20T17:45:06.525Z,8.68
2018-08-20T17:47:38.217Z,6.40
2018-08-20T17:50:11.511Z,10.63
2018-08-20T17:52:41.834Z,7.27
2018-08-20T17:55:11.831Z,16.30
2018-08-20T18:06:20.170Z,13.37
2018-08-20T18:08:48.783Z,26.13
2018-08-20T18:11:17.393Z,14.57
2018-08-20T18:13:47.413Z,19.63
2018-08-20T18:16:18.847Z,7.13
2018-08-20T18:18:48.634Z,18.77
2018-08-20T18:21:17.564Z,11.80
2018-08-20T18:23:46.433Z,7.87
2018-08-20T18:26:17.506Z,15.55
2018-08-20T18:28:53.517Z,14.63
2018-08-20T18:31:24.463Z,9.30
2018-08-20T18:33:53.082Z,8.90
2018-08-20T18:36:24.442Z,8.85
2018-08-20T18:38:58.526Z,8.90
2018-08-20T18:42:17.099Z,8.33
2018-08-20T18:44:47.938Z,8.60
2018-08-20T18:52:19.498Z,7.55
2018-08-20T18:54:52.654Z,12.07
2018-08-20T18:57:29.134Z,12.82
2018-08-20T18:59:58.936Z,13.10
2018-08-20T19:02:38.967Z,9.75
2018-08-20T19:05:12.042Z,11.27
2018-08-20T19:07:41.373Z,13.03
2018-08-20T19:10:16.521Z,12.10
2018-08-20T19:12:45.566Z,9.40
2018-08-20T19:15:41.340Z,8.73
2018-08-20T19:18:12.709Z,9.47
2018-08-20T19:20:42.274Z,18.30
2018-08-20T19:23:10.946Z,11.67
2018-08-20T19:25:40.012Z,16.75
2018-08-20T19:28:13.340Z,11.73
2018-08-20T19:30:42.020Z,13.00
2018-08-20T19:33:15.927Z,14.03
2018-08-20T19:35:44.737Z,12.53
2018-08-20T19:38:13.240Z,10.43
2018-08-20T19:40:42.029Z,13.73
2018-08-20T19:43:10.665Z,15.90
2018-08-20T19:45:43.282Z,14.07
2018-08-20T19:48:12.448Z,15.53
2018-08-20T19:50:41.129Z,14.23
2018-08-20T19:53:24.835Z,9.77
2018-08-20T19:55:53.811Z,12.63
2018-08-20T19:58:27.713Z,10.43
2018-08-20T20:01:07.534Z,13.33
2018-08-20T20:03:36.158Z,26.50
2018-08-20T20:06:04.753Z,15.23
2018-08-20T20:08:33.631Z,10.23
2018-08-20T20:11:02.213Z,21.10
2018-08-20T20:13:30.756Z,13.90
2018-08-20T20:16:01.409Z,12.90
2018-08-20T20:18:30.054Z,11.13
2018-08-20T20:20:58.618Z,16.30
2018-08-20T20:23:27.138Z,10.30
2018-08-20T20:25:56.018Z,16.97
2018-08-20T20:28:25.362Z,13.10
2018-08-20T20:30:54.411Z,14.33
2018-08-20T20:33:24.038Z,19.53
2018-08-20T20:35:52.597Z,13.53
2018-08-20T20:38:21.186Z,13.10
2018-08-20T20:40:49.745Z,15.87
2018-08-20T20:43:23.685Z,11.30
2018-08-20T20:45:52.424Z,18.87
2018-08-20T20:48:20.968Z,23.38
2018-08-20T20:50:49.518Z,20.37
2018-08-20T20:53:18.174Z,14.30
2018-08-20T20:55:46.754Z,14.40
2018-08-20T21:03:12.986Z,16.10
2018-08-20T21:05:42.032Z,13.20
2018-08-20T21:08:10.567Z,12.63
2018-08-20T21:10:45.724Z,21.33
2018-08-20T21:18:07.282Z,17.17
2018-08-20T21:20:35.882Z,13.53
2018-08-20T21:23:05.808Z,16.13
2018-08-20T21:25:34.844Z,15.18
2018-08-20T21:28:03.386Z,12.67
2018-08-20T21:30:37.176Z,14.63
2018-08-20T21:33:05.783Z,17.30
2018-08-20T21:35:35.115Z,11.73
2018-08-20T21:38:03.791Z,13.80
2018-08-20T21:40:32.366Z,17.33
2018-08-20T21:43:00.903Z,17.60
2018-08-20T21:45:29.486Z,21.23
2018-08-20T21:47:58.042Z,13.50
2018-08-20T21:50:26.581Z,23.73
2018-08-20T21:52:55.627Z,18.77
2018-08-20T21:55:27.661Z,14.20
2018-08-20T21:57:56.907Z,24.63
2018-08-20T22:00:26.409Z,21.95
2018-08-20T22:02:59.945Z,14.80
2018-08-20T22:05:28.697Z,16.42
2018-08-20T22:07:58.537Z,20.30
2018-08-20T22:10:29.134Z,19.50
2018-08-20T22:12:58.337Z,19.10
2018-08-20T22:15:26.881Z,17.13
2018-08-20T22:17:55.421Z,20.50
2018-08-20T22:20:24.045Z,18.30
2018-08-20T22:22:52.565Z,14.37
2018-08-20T22:25:21.106Z,19.87
2018-08-20T22:27:54.495Z,21.03
2018-08-20T22:30:25.663Z,16.50
2018-08-20T22:32:54.289Z,18.53
2018-08-20T22:35:25.581Z,16.57
2018-08-20T22:37:54.179Z,20.90
2018-08-20T22:40:23.069Z,18.33
2018-08-20T22:42:54.750Z,16.20
2018-08-20T22:45:23.293Z,22.40
2018-08-20T22:47:52.383Z,23.50
2018-08-20T22:50:20.933Z,16.27
2018-08-20T22:52:51.379Z,22.40
2018-08-20T22:55:21.046Z,15.20
2018-08-20T22:58:00.824Z,14.80
2018-08-20T23:00:29.378Z,14.80
2018-08-20T23:02:58.126Z,17.50
2018-08-20T23:05:30.693Z,15.40
2018-08-20T23:08:04.689Z,19.10
2018-08-20T23:10:33.925Z,18.33
2018-08-20T23:13:03.206Z,18.15
2018-08-20T23:15:31.749Z,15.30
2018-08-20T23:18:00.270Z,20.93
2018-08-20T23:20:31.310Z,18.53
2018-08-20T23:23:00.864Z,21.00
2018-08-20T23:25:29.757Z,18.00
2018-08-20T23:27:58.363Z,16.47
2018-08-20T23:30:26.889Z,21.80
2018-08-20T23:32:55.877Z,13.85
2018-08-20T23:35:24.398Z,15.03
2018-08-20T23:37:52.882Z,17.97
2018-08-20T23:40:21.434Z,14.08
2018-08-20T23:42:50.048Z,20.63
2018-08-20T23:45:18.539Z,17.97
2018-08-20T23:47:47.556Z,16.40
2018-08-20T23:50:17.505Z,14.05
2018-08-20T23:52:46.036Z,17.00
